createdAt,value
2022-09-11T00:01:31.171Z,94081.28
2022-09-11T00:03:57.871Z,94067.50
2022-09-11T00:06:29.761Z,94084.50
2022-09-11T00:09:02.168Z,94075.59
2022-09-11T00:11:33.676Z,94063.16
2022-09-11T00:14:00.396Z,94069.50
2022-09-11T00:16:34.752Z,94054.53
2022-09-11T00:19:08.371Z,94046.44
2022-09-11T00:21:35.106Z,94070.16
2022-09-11T00:24:02.326Z,94042.63
2022-09-11T00:26:28.934Z,94064.81
2022-09-11T00:28:55.370Z,94042.84
2022-09-11T00:31:27.853Z,94054.03
2022-09-11T00:33:55.049Z,94051.44
2022-09-11T00:36:24.736Z,94061.78
2022-09-11T00:38:51.734Z,94032.03
2022-09-11T00:41:24.273Z,94061.44
2022-09-11T00:44:02.919Z,94054.63
2022-09-11T00:46:48.618Z,94047.25
2022-09-11T00:49:23.828Z,94060.56
2022-09-11T00:51:54.265Z,94040.75
2022-09-11T00:54:26.719Z,94055.06
2022-09-11T00:56:56.934Z,94013.28
2022-09-11T00:59:27.644Z,94027.34
2022-09-11T01:01:54.466Z,94045.78
2022-09-11T01:04:21.851Z,94028.50
2022-09-11T01:06:49.189Z,94020.84
2022-09-11T01:09:15.750Z,94028.50
2022-09-11T01:11:47.896Z,94020.22
2022-09-11T01:14:21.388Z,94020.63
2022-09-11T01:17:15.219Z,94030.38
2022-09-11T01:20:01.141Z,94043.75
2022-09-11T01:22:36.570Z,94038.88
2022-09-11T01:25:02.866Z,94038.50
2022-09-11T01:27:58.361Z,94044.53
2022-09-11T01:30:34.565Z,94036.19
2022-09-11T01:33:22.835Z,94044.16
2022-09-11T01:36:05.029Z,94021.75
2022-09-11T01:39:00.139Z,94035.63
2022-09-11T01:41:40.714Z,94036.75
2022-09-11T01:44:18.589Z,94032.00
2022-09-11T01:46:49.796Z,94038.41
2022-09-11T01:49:35.219Z,94043.09
2022-09-11T01:52:06.508Z,94019.53
2022-09-11T01:54:41.925Z,94027.25
2022-09-11T01:57:16.205Z,94029.97
2022-09-11T01:59:55.591Z,94034.84
2022-09-11T02:02:29.302Z,94034.28
2022-09-11T02:05:02.910Z,94029.88
2022-09-11T02:07:34.355Z,94034.69
2022-09-11T02:10:07.731Z,94023.34
2022-09-11T02:12:41.015Z,94022.19
2022-09-11T02:15:08.342Z,94026.63
2022-09-11T02:17:55.032Z,94024.72
2022-09-11T02:20:21.473Z,94008.38
2022-09-11T02:22:49.004Z,94000.00
2022-09-11T02:25:15.820Z,94024.72
2022-09-11T02:27:42.642Z,94030.38
2022-09-11T02:30:09.911Z,94033.38
2022-09-11T02:32:47.267Z,93999.06
2022-09-11T02:35:16.217Z,94011.59
2022-09-11T02:37:49.450Z,94029.88
2022-09-11T02:40:45.484Z,94024.38
2022-09-11T02:43:29.240Z,94023.59
2022-09-11T02:46:26.843Z,94031.22
2022-09-11T02:49:55.911Z,94033.75
2022-09-11T02:52:31.145Z,94024.28
2022-09-11T02:55:08.042Z,94027.59
2022-09-11T02:58:03.366Z,94029.69
2022-09-11T03:00:29.904Z,94016.28
2022-09-11T03:02:56.450Z,94018.84
2022-09-11T03:05:23.417Z,94019.25
2022-09-11T03:07:51.022Z,94005.16
2022-09-11T03:10:17.693Z,94009.56
2022-09-11T03:12:44.122Z,94024.78
2022-09-11T03:15:11.093Z,94029.31
2022-09-11T03:17:37.530Z,94014.38
2022-09-11T03:20:05.315Z,94017.56
2022-09-11T03:22:31.847Z,94011.06
2022-09-11T03:24:58.226Z,94003.16
2022-09-11T03:27:24.698Z,93996.69
2022-09-11T03:29:52.126Z,94000.59
2022-09-11T03:32:18.518Z,93998.63
2022-09-11T03:34:47.250Z,93993.88
2022-09-11T03:37:13.616Z,94000.19
2022-09-11T03:39:40.014Z,93974.78
2022-09-11T03:42:06.478Z,94019.13
2022-09-11T03:44:32.837Z,94001.78
2022-09-11T03:47:00.217Z,93998.97
2022-09-11T03:49:26.582Z,93984.16
2022-09-11T03:51:53.141Z,94005.06
2022-09-11T03:54:20.915Z,93994.72
2022-09-11T03:56:47.285Z,94001.50
2022-09-11T03:59:13.747Z,93994.09
2022-09-11T04:01:40.261Z,94001.78
2022-09-11T04:04:06.663Z,94031.28
2022-09-11T04:06:33.077Z,94004.63
2022-09-11T04:08:59.457Z,94005.31
2022-09-11T04:11:25.836Z,93999.34
2022-09-11T04:13:52.281Z,93991.06
2022-09-11T04:16:20.097Z,94032.88
2022-09-11T04:18:47.781Z,94006.25
2022-09-11T04:21:16.767Z,94016.94
2022-09-11T04:23:44.249Z,94005.34
2022-09-11T04:26:19.074Z,94026.34
2022-09-11T04:28:46.232Z,94030.28
2022-09-11T04:31:13.721Z,93997.41
2022-09-11T04:33:40.964Z,94000.59
2022-09-11T04:36:10.030Z,94004.13
2022-09-11T04:38:36.711Z,93979.66
2022-09-11T04:41:04.183Z,94015.06
2022-09-11T04:43:31.593Z,94019.47
2022-09-11T04:46:12.845Z,94025.44
2022-09-11T04:48:53.941Z,94029.88
2022-09-11T04:51:23.395Z,94012.63
2022-09-11T04:53:57.387Z,93999.31
2022-09-11T04:56:26.086Z,94012.13
2022-09-11T04:59:13.251Z,94014.22
2022-09-11T05:01:39.817Z,94013.50
2022-09-11T05:04:06.796Z,94013.97
2022-09-11T05:06:33.186Z,94020.41
2022-09-11T05:09:07.999Z,94025.25
2022-09-11T05:11:34.793Z,94040.22
2022-09-11T05:14:01.568Z,94028.78
2022-09-11T05:16:30.229Z,94011.59
2022-09-11T05:18:59.347Z,94003.03
2022-09-11T05:21:27.339Z,94034.78
2022-09-11T05:23:58.553Z,94048.16
2022-09-11T05:26:27.275Z,94035.53
2022-09-11T05:28:59.133Z,94054.03
2022-09-11T05:31:26.256Z,94054.13
2022-09-11T05:33:54.490Z,94050.63
2022-09-11T05:36:21.085Z,94020.31
2022-09-11T05:38:53.944Z,94071.88
2022-09-11T05:41:20.663Z,94037.41
2022-09-11T05:43:47.343Z,94033.63
2022-09-11T05:46:17.688Z,94054.00
2022-09-11T05:48:44.712Z,94072.38
2022-09-11T05:51:13.746Z,94076.38
2022-09-11T05:53:40.801Z,94061.94
2022-09-11T05:56:09.252Z,94079.00
2022-09-11T05:58:36.517Z,94092.59
2022-09-11T06:01:05.036Z,94070.38
2022-09-11T06:03:34.306Z,94075.59
2022-09-11T06:06:02.309Z,94102.53
2022-09-11T06:08:30.897Z,94077.53
2022-09-11T06:10:58.633Z,94114.81
2022-09-11T06:13:41.269Z,94094.84
2022-09-11T06:16:13.408Z,94114.84
2022-09-11T06:18:42.737Z,94112.84
2022-09-11T06:21:12.540Z,94117.16
2022-09-11T06:23:39.991Z,94118.94
2022-09-11T06:26:09.020Z,94114.34
2022-09-11T06:28:36.233Z,94124.78
2022-09-11T06:31:07.609Z,94102.63
2022-09-11T06:33:36.760Z,94119.53
2022-09-11T06:36:15.021Z,94127.25
2022-09-11T06:38:42.799Z,94118.19
2022-09-11T06:41:13.852Z,94112.75
2022-09-11T06:43:45.335Z,94112.53
2022-09-11T06:46:13.368Z,94130.00
2022-09-11T06:48:41.130Z,94115.56
2022-09-11T06:51:11.332Z,94114.78
2022-09-11T06:53:38.395Z,94136.91
2022-09-11T06:56:06.859Z,94103.56
2022-09-11T06:58:34.279Z,94135.28
2022-09-11T07:01:09.954Z,94134.09
2022-09-11T07:03:46.351Z,94138.03
2022-09-11T07:06:16.258Z,94144.09
2022-09-11T07:09:00.689Z,94106.25
2022-09-11T07:11:27.966Z,94110.59
2022-09-11T07:13:54.430Z,94113.41
2022-09-11T07:16:20.892Z,94123.94
2022-09-11T07:18:47.783Z,94121.41
2022-09-11T07:21:18.628Z,94145.16
2022-09-11T07:23:50.988Z,94126.56
2022-09-11T07:26:18.431Z,94149.47
2022-09-11T07:28:44.910Z,94062.50
2022-09-11T07:31:20.885Z,94144.13
2022-09-11T07:33:49.081Z,94147.22
2022-09-11T07:36:37.777Z,94154.53
2022-09-11T07:39:04.347Z,94133.78
2022-09-11T07:41:31.617Z,94144.81
2022-09-11T07:44:03.659Z,94146.50
2022-09-11T07:46:33.320Z,94124.75
2022-09-11T07:49:01.951Z,94132.97
2022-09-11T07:51:28.661Z,94135.03
2022-09-11T07:53:57.869Z,94158.53
2022-09-11T07:56:41.134Z,94126.38
2022-09-11T07:59:11.662Z,94143.41
2022-09-11T08:01:38.098Z,94135.56
2022-09-11T08:04:10.527Z,94150.81
2022-09-11T08:06:41.376Z,94148.22
2022-09-11T08:09:11.557Z,94176.69
2022-09-11T08:11:41.086Z,94182.75
2022-09-11T08:14:07.875Z,94162.53
2022-09-11T08:16:36.243Z,94160.34
2022-09-11T08:19:22.619Z,94180.66
2022-09-11T08:21:50.178Z,94165.59
2022-09-11T08:24:17.729Z,94189.63
2022-09-11T08:26:48.712Z,94167.34
2022-09-11T08:29:15.586Z,94157.50
2022-09-11T08:31:42.031Z,94198.06
2022-09-11T08:34:10.213Z,94181.28
2022-09-11T08:36:36.747Z,94173.13
2022-09-11T08:39:09.136Z,94179.97
2022-09-11T08:41:53.662Z,94196.59
2022-09-11T08:44:23.942Z,94211.66
2022-09-11T08:47:06.549Z,94173.56
2022-09-11T08:49:42.937Z,94214.94
2022-09-11T08:52:14.149Z,94186.44
2022-09-11T08:54:50.538Z,94192.88
2022-09-11T08:57:24.830Z,94219.50
2022-09-11T09:00:18.657Z,94198.09
2022-09-11T09:02:57.310Z,94226.16
2022-09-11T09:05:47.531Z,94217.88
2022-09-11T09:09:01.171Z,94220.38
2022-09-11T09:11:30.669Z,94229.44
2022-09-11T09:14:41.996Z,94237.34
2022-09-11T09:17:16.895Z,94210.44
2022-09-11T09:20:16.433Z,94223.91
2022-09-11T09:23:01.878Z,94204.59
2022-09-11T09:25:38.201Z,94208.16
2022-09-11T09:28:25.469Z,94224.31
2022-09-11T09:31:01.777Z,94216.84
2022-09-11T09:33:45.845Z,94228.03
2022-09-11T09:36:20.847Z,94230.63
2022-09-11T09:39:14.125Z,94226.69
2022-09-11T09:41:54.374Z,94230.06
2022-09-11T09:44:57.967Z,94216.09
2022-09-11T09:47:24.429Z,94198.09
2022-09-11T09:49:52.376Z,94224.75
2022-09-11T09:52:26.787Z,94202.41
2022-09-11T09:54:56.991Z,94205.31
2022-09-11T09:57:26.387Z,94180.88
2022-09-11T10:00:05.459Z,94215.34
2022-09-11T10:02:58.596Z,94203.06
2022-09-11T10:05:41.474Z,94224.50
2022-09-11T10:08:37.651Z,94214.09
2022-09-11T10:11:06.689Z,94199.91
2022-09-11T10:13:55.484Z,94217.44
2022-09-11T10:16:25.766Z,94191.00
2022-09-11T10:18:53.471Z,94140.72
2022-09-11T10:21:33.333Z,94212.03
2022-09-11T10:24:30.075Z,94210.22
2022-09-11T10:26:59.102Z,94196.00
2022-09-11T10:29:30.009Z,94190.25
2022-09-11T10:32:05.487Z,94220.22
2022-09-11T10:34:40.467Z,94187.16
2022-09-11T10:37:15.175Z,94206.19
2022-09-11T10:39:46.369Z,94211.44
2022-09-11T10:42:27.541Z,94216.53
2022-09-11T10:45:05.799Z,94199.16
2022-09-11T10:47:37.328Z,94180.75
2022-09-11T10:50:34.455Z,94212.19
2022-09-11T10:53:19.717Z,94217.72
2022-09-11T10:56:00.129Z,94214.47
2022-09-11T10:58:42.351Z,94199.53
2022-09-11T11:01:09.966Z,94203.00
2022-09-11T11:03:36.800Z,94197.09
2022-09-11T11:06:34.865Z,94221.34
2022-09-11T11:09:47.972Z,94224.28
2022-09-11T11:12:31.949Z,94213.56
2022-09-11T11:15:30.272Z,94214.88
2022-09-11T11:18:12.211Z,94216.63
2022-09-11T11:20:56.991Z,94214.31
2022-09-11T11:23:54.365Z,94211.53
2022-09-11T11:26:23.926Z,94217.84
2022-09-11T11:29:16.154Z,94215.66
2022-09-11T11:32:01.450Z,94209.47
2022-09-11T11:35:09.486Z,94186.06
2022-09-11T11:37:48.702Z,94198.19
2022-09-11T11:40:46.178Z,94213.13
2022-09-11T11:43:17.475Z,94208.94
2022-09-11T11:45:57.519Z,94202.41
2022-09-11T11:48:36.937Z,94213.94
2022-09-11T11:51:07.555Z,94188.03
2022-09-11T11:53:44.921Z,94210.16
2022-09-11T11:56:49.326Z,94196.56
2022-09-11T11:59:45.730Z,94204.50
2022-09-11T12:02:21.930Z,94182.13
2022-09-11T12:05:05.461Z,94179.16
2022-09-11T12:07:38.922Z,94169.94
2022-09-11T12:10:08.468Z,94185.38
2022-09-11T12:12:47.652Z,94203.75
2022-09-11T12:15:19.734Z,94118.28
2022-09-11T12:18:23.897Z,94190.22
2022-09-11T12:20:51.341Z,94190.13
2022-09-11T12:23:30.027Z,94190.44
2022-09-11T12:26:24.888Z,94190.53
2022-09-11T12:29:20.357Z,94204.69
2022-09-11T12:31:51.801Z,94188.03
2022-09-11T12:34:39.245Z,94198.66
2022-09-11T12:37:12.520Z,94171.84
2022-09-11T12:39:50.363Z,94151.50
2022-09-11T12:42:22.966Z,94202.03
2022-09-11T12:44:49.290Z,94195.78
2022-09-11T12:47:24.240Z,94200.59
2022-09-11T12:49:55.052Z,94169.97
2022-09-11T12:52:30.387Z,94134.34
2022-09-11T12:55:04.406Z,94168.66
2022-09-11T12:57:38.258Z,94159.50
2022-09-11T13:00:41.231Z,94161.13
2022-09-11T13:03:19.366Z,94174.63
2022-09-11T13:06:07.586Z,94162.50
2022-09-11T13:08:59.960Z,94172.56
2022-09-11T13:11:38.338Z,94153.28
2022-09-11T13:14:30.843Z,94174.00
2022-09-11T13:17:15.110Z,94148.03
2022-09-11T13:19:43.627Z,94143.44
2022-09-11T13:22:23.826Z,94159.13
2022-09-11T13:24:51.464Z,94136.63
2022-09-11T13:27:28.125Z,94153.91
2022-09-11T13:29:58.100Z,94141.94
2022-09-11T13:32:35.912Z,94141.19
2022-09-11T13:35:10.943Z,94143.00
2022-09-11T13:37:58.363Z,94148.00
2022-09-11T13:40:35.153Z,94147.75
2022-09-11T13:43:02.334Z,94080.94
2022-09-11T13:45:28.856Z,94131.34
2022-09-11T13:47:58.326Z,94112.69
2022-09-11T13:50:25.198Z,94138.25
2022-09-11T13:52:53.894Z,94156.84
2022-09-11T13:55:27.059Z,94131.22
2022-09-11T13:58:02.842Z,94148.13
2022-09-11T14:00:50.482Z,94135.91
2022-09-11T14:03:22.209Z,94144.19
2022-09-11T14:05:51.267Z,94154.63
2022-09-11T14:08:27.014Z,94123.75
2022-09-11T14:10:56.913Z,94131.22
2022-09-11T14:13:35.622Z,94146.75
2022-09-11T14:16:15.416Z,94142.56
2022-09-11T14:19:11.179Z,94132.84
2022-09-11T14:21:40.497Z,94114.22
2022-09-11T14:24:26.511Z,94131.25
2022-09-11T14:26:58.836Z,94117.78
2022-09-11T14:29:36.770Z,94135.97
2022-09-11T14:32:29.724Z,94129.97
2022-09-11T14:34:58.701Z,94118.28
2022-09-11T14:37:28.142Z,94123.47
2022-09-11T14:40:18.708Z,94141.81
2022-09-11T14:42:47.398Z,94131.03
2022-09-11T14:45:28.106Z,94120.50
2022-09-11T14:47:54.542Z,94109.94
2022-09-11T14:50:21.291Z,94096.59
2022-09-11T14:53:01.743Z,94109.75
2022-09-11T14:55:28.255Z,94071.31
2022-09-11T14:57:54.737Z,94111.88
2022-09-11T15:00:21.479Z,94088.13
2022-09-11T15:02:52.024Z,94099.28
2022-09-11T15:05:21.644Z,94107.94
2022-09-11T15:07:48.992Z,94103.72
2022-09-11T15:10:15.778Z,94125.09
2022-09-11T15:12:42.848Z,94070.28
2022-09-11T15:15:09.661Z,94096.03
2022-09-11T15:17:36.463Z,94099.84
2022-09-11T15:20:04.768Z,94121.56
2022-09-11T15:22:31.506Z,94083.72
2022-09-11T15:24:59.899Z,94115.75
2022-09-11T15:27:26.430Z,94077.44
2022-09-11T15:29:53.267Z,94023.47
2022-09-11T15:32:21.090Z,94101.75
2022-09-11T15:34:47.888Z,94089.50
2022-09-11T15:37:16.809Z,94063.19
2022-09-11T15:39:43.740Z,94087.63
2022-09-11T15:42:10.423Z,94101.63
2022-09-11T15:44:37.478Z,94083.50
2022-09-11T15:47:04.633Z,94062.19
2022-09-11T15:49:31.765Z,94064.97
2022-09-11T15:51:59.703Z,94082.63
2022-09-11T15:54:26.960Z,94084.19
2022-09-11T15:56:53.558Z,94058.00
2022-09-11T15:59:20.653Z,94089.44
2022-09-11T16:01:47.471Z,94044.34
2022-09-11T16:04:18.585Z,94024.53
2022-09-11T16:06:47.794Z,94063.56
2022-09-11T16:09:21.301Z,94073.19
2022-09-11T16:11:50.372Z,94055.28
2022-09-11T16:14:29.403Z,94086.09
2022-09-11T16:16:57.909Z,94061.38
2022-09-11T16:19:28.282Z,94099.19
2022-09-11T16:21:56.991Z,94079.53
2022-09-11T16:24:25.726Z,94090.16
2022-09-11T16:26:56.458Z,94092.13
2022-09-11T16:29:25.533Z,94088.53
2022-09-11T16:31:55.402Z,94047.28
2022-09-11T16:34:22.151Z,94084.72
2022-09-11T16:36:49.850Z,94080.66
2022-09-11T16:39:19.466Z,94071.94
2022-09-11T16:41:46.024Z,94058.41
2022-09-11T16:44:14.402Z,94083.16
2022-09-11T16:46:43.885Z,94074.56
2022-09-11T16:49:15.820Z,94048.25
2022-09-11T16:51:44.010Z,94038.69
2022-09-11T16:54:11.349Z,94057.19
2022-09-11T16:56:39.062Z,94052.00
2022-09-11T16:59:09.095Z,94058.28
2022-09-11T17:01:36.870Z,94018.88
2022-09-11T17:04:04.391Z,94057.31
2022-09-11T17:06:32.079Z,94060.47
2022-09-11T17:09:00.239Z,94075.50
2022-09-11T17:11:28.361Z,94046.88
2022-09-11T17:13:54.904Z,94034.50
2022-09-11T17:16:25.667Z,94063.69
2022-09-11T17:18:54.366Z,94082.72
2022-09-11T17:21:23.987Z,94080.75
2022-09-11T17:23:52.523Z,94048.41
2022-09-11T17:26:19.044Z,94081.75
2022-09-11T17:28:47.675Z,94084.81
2022-09-11T17:31:16.267Z,94051.94
2022-09-11T17:33:45.417Z,94069.69
2022-09-11T17:36:17.232Z,94019.84
2022-09-11T17:38:45.591Z,94082.59
2022-09-11T17:41:12.358Z,94075.78
2022-09-11T17:43:39.110Z,94079.13
2022-09-11T17:46:11.042Z,94082.94
2022-09-11T17:48:39.598Z,94060.81
2022-09-11T17:51:17.822Z,94061.81
2022-09-11T17:53:48.558Z,94066.06
2022-09-11T17:56:18.051Z,94089.66
2022-09-11T17:58:45.422Z,94081.38
2022-09-11T18:01:16.786Z,94093.63
2022-09-11T18:03:43.755Z,94075.53
2022-09-11T18:06:22.148Z,94100.03
2022-09-11T18:08:49.614Z,94064.22
2022-09-11T18:11:15.998Z,94068.81
2022-09-11T18:13:43.839Z,94074.25
2022-09-11T18:16:11.594Z,94102.66
2022-09-11T18:18:39.400Z,94090.81
2022-09-11T18:21:10.493Z,94077.09
2022-09-11T18:23:45.143Z,94083.78
2022-09-11T18:26:26.957Z,94096.97
2022-09-11T18:29:00.086Z,94060.25
2022-09-11T18:31:30.243Z,94068.44
2022-09-11T18:34:00.067Z,94102.06
2022-09-11T18:36:28.966Z,94104.03
2022-09-11T18:38:57.542Z,94106.09
2022-09-11T18:41:24.539Z,94079.56
2022-09-11T18:43:54.952Z,94079.56
2022-09-11T18:46:22.049Z,94092.94
2022-09-11T18:48:50.250Z,94067.44
2022-09-11T18:51:17.879Z,94083.63
2022-09-11T18:53:47.402Z,94054.69
2022-09-11T18:56:14.217Z,94094.56
2022-09-11T18:58:40.946Z,94086.97
2022-09-11T19:01:11.415Z,94093.63
2022-09-11T19:03:44.441Z,94091.88
2022-09-11T19:06:17.774Z,94110.06
2022-09-11T19:08:49.167Z,94109.50
2022-09-11T19:11:23.071Z,94119.56
2022-09-11T19:13:51.657Z,94098.97
2022-09-11T19:16:20.428Z,94133.63
2022-09-11T19:18:47.883Z,94132.41
2022-09-11T19:21:17.766Z,94129.16
2022-09-11T19:23:46.773Z,94134.88
2022-09-11T19:26:19.277Z,94130.94
2022-09-11T19:28:47.057Z,94131.16
2022-09-11T19:31:15.288Z,94135.81
2022-09-11T19:33:44.385Z,94123.72
2022-09-11T19:36:16.887Z,94123.34
2022-09-11T19:38:45.499Z,94104.34
2022-09-11T19:41:15.090Z,94124.16
2022-09-11T19:43:43.648Z,94073.81
2022-09-11T19:46:15.914Z,94101.63
2022-09-11T19:48:44.194Z,94119.81
2022-09-11T19:51:16.118Z,94149.22
2022-09-11T19:53:43.148Z,94123.44
2022-09-11T19:56:11.098Z,94137.16
2022-09-11T19:58:40.848Z,94137.56
2022-09-11T20:01:13.447Z,94137.16
2022-09-11T20:03:42.651Z,94137.16
2022-09-11T20:06:10.624Z,94124.28
2022-09-11T20:08:38.019Z,94059.38
2022-09-11T20:11:07.062Z,94134.34
2022-09-11T20:13:37.437Z,94125.06
2022-09-11T20:16:23.185Z,94129.06
2022-09-11T20:18:53.746Z,94112.97
2022-09-11T20:21:22.002Z,94128.69
2022-09-11T20:23:52.630Z,94121.47
2022-09-11T20:26:23.276Z,94060.19
2022-09-11T20:28:56.910Z,94089.59
2022-09-11T20:31:24.490Z,94131.50
2022-09-11T20:33:50.949Z,94099.66
2022-09-11T20:36:18.472Z,94131.09
2022-09-11T20:38:53.415Z,94124.28
2022-09-11T20:41:23.129Z,94119.84
2022-09-11T20:43:49.964Z,94104.91
2022-09-11T20:46:16.439Z,94085.53
2022-09-11T20:48:42.865Z,94098.03
2022-09-11T20:51:12.534Z,94109.28
2022-09-11T20:53:41.699Z,94113.38
2022-09-11T20:56:10.026Z,94132.28
2022-09-11T20:58:37.109Z,94078.47
2022-09-11T21:01:04.760Z,94108.88
2022-09-11T21:03:31.478Z,94111.72
2022-09-11T21:05:58.351Z,94118.56
2022-09-11T21:08:27.322Z,94108.31
2022-09-11T21:10:55.774Z,94112.38
2022-09-11T21:13:22.147Z,94093.09
2022-09-11T21:15:48.513Z,94091.84
2022-09-11T21:18:15.465Z,94108.41
2022-09-11T21:20:42.917Z,94078.13
2022-09-11T21:23:12.398Z,94101.88
2022-09-11T21:25:40.195Z,94117.63
2022-09-11T21:28:10.557Z,94104.72
2022-09-11T21:30:43.182Z,94110.97
2022-09-11T21:33:09.562Z,94088.59
2022-09-11T21:35:42.371Z,94093.38
2022-09-11T21:38:09.748Z,94089.34
2022-09-11T21:40:36.138Z,94095.41
2022-09-11T21:43:04.343Z,94090.56
2022-09-11T21:45:32.819Z,94084.53
2022-09-11T21:47:59.239Z,94099.81
2022-09-11T21:50:26.647Z,94084.16
2022-09-11T21:52:54.508Z,94092.47
2022-09-11T21:55:21.446Z,94088.44
2022-09-11T21:57:47.887Z,94111.59
2022-09-11T22:00:14.839Z,94111.34
2022-09-11T22:02:41.273Z,94074.06
2022-09-11T22:05:08.888Z,94096.44
2022-09-11T22:07:35.409Z,94077.63
2022-09-11T22:10:02.278Z,94106.38
2022-09-11T22:12:29.867Z,94122.66
2022-09-11T22:14:56.239Z,94098.38
2022-09-11T22:17:22.897Z,94079.78
2022-09-11T22:19:49.293Z,94079.41
2022-09-11T22:22:16.127Z,94096.97
2022-09-11T22:24:43.716Z,94062.97
2022-09-11T22:27:10.234Z,94074.66
2022-09-11T22:29:37.314Z,94064.41
2022-09-11T22:32:06.981Z,94115.97
2022-09-11T22:34:36.872Z,94079.84
2022-09-11T22:37:06.142Z,94057.94
2022-09-11T22:39:32.526Z,94076.22
2022-09-11T22:42:01.851Z,94086.06
2022-09-11T22:44:29.266Z,94061.38
2022-09-11T22:46:55.678Z,94090.44
2022-09-11T22:49:22.164Z,94072.69
2022-09-11T22:51:48.599Z,94060.38
2022-09-11T22:54:15.646Z,94082.38
2022-09-11T22:56:42.441Z,94066.59
2022-09-11T22:59:08.851Z,94075.53
2022-09-11T23:01:36.454Z,94084.47
2022-09-11T23:04:03.842Z,94097.84
2022-09-11T23:06:49.192Z,94068.00
2022-09-11T23:09:16.935Z,94042.00
2022-09-11T23:11:45.236Z,94062.13
2022-09-11T23:14:14.320Z,94058.72
2022-09-11T23:16:41.121Z,94037.47
2022-09-11T23:19:08.642Z,94087.00
2022-09-11T23:21:35.893Z,94072.16
2022-09-11T23:24:04.654Z,94083.78
2022-09-11T23:26:31.130Z,94061.94
2022-09-11T23:28:58.005Z,94048.38
2022-09-11T23:31:28.732Z,94075.44
2022-09-11T23:33:58.005Z,94072.84
2022-09-11T23:36:25.013Z,94079.25
2022-09-11T23:38:52.110Z,94065.94
2022-09-11T23:41:19.205Z,94067.56
2022-09-11T23:43:46.073Z,94071.16
2022-09-11T23:46:13.234Z,94053.44
2022-09-11T23:48:40.247Z,94052.59
2022-09-11T23:51:08.546Z,94066.84
2022-09-11T23:53:34.922Z,94039.28
2022-09-11T23:56:01.468Z,94037.69
2022-09-11T23:58:27.859Z,94018.72
